Login to view Products
 
Sunday, May 31, 2020 (14:30 UTC)
Sharjah International Airport
ICAO: OMSJ
IATA: SHJ
  • METAR OMSJ 311430Z 29008KT 8000 NSC 36/21 Q1003 NOSIG=
  • TAF OMSJ 311053Z 3112/0118 29015KT 8000 NSC PROB30 3112/3116 4000 DU BECMG 3115/3117 14005KT BECMG 0103/0105 20015KT PROB30 0103/0109 3000 DU BECMG 0107/0109 29015KT BECMG 0115/0117 10005KT=
D:\Input Parser\Destinations\Final\10\OMSJL12181053546000960.txt
1